KLGF/LGF METAR and TAF weather

Enter ICAO airport designator
Station Type Date Time Source
KLGF METAR 2021/09/23 22:58 UTC NOAA

KLGF 232258Z AUTO 00000KT 10SM CLR 34/15 A2978 RMK AO2 LTG DSNT S SLP080 P0000 T03380150 $


Station Type Date Time Source
KLGF Decoded METAR 2021/09/23 22:58 UTC NOAA

Station name not available
Sep 23, 2021 - 06:58 PM EDT / 2021.09.23 2258 UTC
Wind: Calm:0
Visibility: 10 mile(s):0
Sky conditions: clear
Weather: Lightning observed
Precipitation last hour: A trace
Temperature: 92.8 F (33.8 C)
Dew Point: 59.0 F (15.0 C)
Relative Humidity: 32%
Pressure (altimeter): 29.78 in. Hg (1008 hPa)
ob: KLGF 232258Z AUTO 00000KT 10SM CLR 34/15 A2978 RMK AO2 LTG DSNT S SLP080 P0000 T03380150
cycle: 23

Station Type Date Time Source
KLGF TAF UTC NOAA

Error!

Example: see airport list